createdAt,value
2023-06-29T00:00:43.878Z,219.29
2023-06-29T00:01:43.918Z,215.16
2023-06-29T00:02:44.996Z,217.34
2023-06-29T00:03:43.995Z,216.38
2023-06-29T00:04:45.012Z,218.17
2023-06-29T00:05:45.298Z,216.67
2023-06-29T00:06:45.090Z,216.37
2023-06-29T00:07:44.107Z,215.43
2023-06-29T00:08:45.546Z,215.76
2023-06-29T00:09:44.168Z,214.04
2023-06-29T00:10:44.218Z,213.82
2023-06-29T00:11:44.265Z,217.81
2023-06-29T00:12:45.294Z,217.07
2023-06-29T00:13:45.326Z,213.00
2023-06-29T00:14:45.370Z,215.41
2023-06-29T00:15:45.838Z,213.61
2023-06-29T00:16:44.420Z,211.13
2023-06-29T00:17:45.589Z,212.39
2023-06-29T00:18:44.415Z,210.57
2023-06-29T00:19:45.471Z,212.45
2023-06-29T00:20:44.493Z,215.19
2023-06-29T00:21:45.534Z,211.26
2023-06-29T00:22:45.552Z,211.10
2023-06-29T00:23:45.609Z,209.28
2023-06-29T00:24:44.620Z,210.85
2023-06-29T00:25:44.741Z,209.78
2023-06-29T00:26:44.663Z,212.44
2023-06-29T00:27:45.673Z,209.98
2023-06-29T00:28:45.724Z,210.24
2023-06-29T00:29:45.733Z,209.70
2023-06-29T00:30:44.781Z,209.12
2023-06-29T00:31:45.811Z,210.97
2023-06-29T00:32:45.870Z,207.99
2023-06-29T00:33:45.858Z,208.29
2023-06-29T00:34:45.897Z,206.03
2023-06-29T00:35:45.112Z,207.20
2023-06-29T00:36:45.972Z,208.69
2023-06-29T00:37:45.011Z,207.27
2023-06-29T00:38:46.042Z,205.71
2023-06-29T00:39:46.105Z,206.04
2023-06-29T00:40:46.169Z,208.51
2023-06-29T00:41:45.198Z,205.47
2023-06-29T00:42:46.218Z,202.96
2023-06-29T00:43:46.250Z,207.47
2023-06-29T00:44:46.291Z,206.52
2023-06-29T00:45:45.598Z,200.32
2023-06-29T00:46:45.415Z,204.33
2023-06-29T00:47:46.444Z,208.51
2023-06-29T00:48:45.425Z,206.52
2023-06-29T00:49:46.459Z,203.00
2023-06-29T00:50:46.460Z,202.81
2023-06-29T00:51:46.489Z,202.23
2023-06-29T00:52:45.469Z,206.00
2023-06-29T00:53:46.496Z,202.44
2023-06-29T00:54:45.496Z,197.25
2023-06-29T00:55:46.523Z,203.23
2023-06-29T00:56:45.558Z,204.68
2023-06-29T00:57:46.538Z,202.82
2023-06-29T00:58:45.533Z,199.19
2023-06-29T00:59:45.561Z,199.74
2023-06-29T01:00:46.596Z,200.33
2023-06-29T01:01:45.568Z,197.82
2023-06-29T01:02:45.620Z,201.72
2023-06-29T01:03:45.644Z,202.06
2023-06-29T01:04:45.611Z,200.23
2023-06-29T01:05:45.860Z,198.96
2023-06-29T01:06:46.627Z,199.37
2023-06-29T01:07:46.633Z,197.60
2023-06-29T01:08:45.672Z,201.40
2023-06-29T01:09:46.688Z,200.85
2023-06-29T01:10:46.741Z,197.36
2023-06-29T01:11:46.787Z,198.27
2023-06-29T01:12:46.826Z,198.54
2023-06-29T01:13:46.826Z,197.82
2023-06-29T01:14:46.857Z,198.65
2023-06-29T01:15:46.911Z,197.26
2023-06-29T01:16:46.961Z,197.72
2023-06-29T01:17:45.965Z,193.40
2023-06-29T01:18:45.948Z,193.58
2023-06-29T01:19:46.979Z,194.62
2023-06-29T01:20:46.042Z,196.72
2023-06-29T01:21:46.055Z,194.46
2023-06-29T01:22:47.071Z,193.95
2023-06-29T01:23:47.069Z,194.93
2023-06-29T01:24:47.078Z,196.11
2023-06-29T01:25:47.116Z,195.82
2023-06-29T01:26:47.143Z,198.26
2023-06-29T01:27:47.160Z,192.96
2023-06-29T01:28:47.227Z,195.64
2023-06-29T01:29:46.250Z,197.18
2023-06-29T01:30:47.291Z,194.47
2023-06-29T01:31:46.405Z,194.64
2023-06-29T01:32:47.349Z,193.69
2023-06-29T01:33:46.331Z,194.31
2023-06-29T01:34:47.325Z,192.26
2023-06-29T01:35:47.401Z,192.10
2023-06-29T01:36:46.440Z,195.21
2023-06-29T01:37:46.412Z,193.34
2023-06-29T01:38:46.440Z,192.70
2023-06-29T01:39:47.436Z,192.48
2023-06-29T01:40:47.449Z,196.78
2023-06-29T01:41:47.455Z,192.19
2023-06-29T01:42:47.445Z,189.71
2023-06-29T01:43:46.436Z,193.73
2023-06-29T01:44:47.466Z,189.67
2023-06-29T01:45:47.464Z,189.99
2023-06-29T01:46:46.451Z,189.83
2023-06-29T01:47:47.470Z,188.41
2023-06-29T01:48:47.430Z,192.20
2023-06-29T01:49:47.428Z,190.50
2023-06-29T01:50:47.434Z,189.55
2023-06-29T01:51:47.493Z,189.81
2023-06-29T01:52:47.543Z,187.90
2023-06-29T01:53:46.610Z,192.13
2023-06-29T01:54:47.639Z,190.99
2023-06-29T01:55:47.643Z,188.53
2023-06-29T01:56:47.653Z,187.90
2023-06-29T01:57:46.699Z,189.03
2023-06-29T01:58:47.708Z,187.30
2023-06-29T01:59:47.723Z,189.52
2023-06-29T02:00:47.752Z,190.61
2023-06-29T02:01:46.802Z,188.15
2023-06-29T02:02:46.816Z,188.73
2023-06-29T02:03:46.844Z,188.89
2023-06-29T02:04:47.721Z,185.49
2023-06-29T02:05:47.723Z,185.69
2023-06-29T02:06:46.727Z,185.53
2023-06-29T02:07:46.723Z,188.38
2023-06-29T02:08:47.710Z,185.85
2023-06-29T02:09:46.707Z,186.60
2023-06-29T02:10:47.735Z,184.78
2023-06-29T02:11:46.710Z,185.22
2023-06-29T02:12:47.701Z,187.50
2023-06-29T02:13:46.713Z,184.72
2023-06-29T02:14:47.703Z,183.83
2023-06-29T02:15:47.818Z,187.54
2023-06-29T02:16:46.835Z,188.91
2023-06-29T02:17:47.856Z,187.48
2023-06-29T02:18:47.808Z,183.84
2023-06-29T02:19:47.783Z,182.78
2023-06-29T02:20:46.798Z,185.80
2023-06-29T02:21:47.796Z,184.68
2023-06-29T02:22:47.805Z,183.71
2023-06-29T02:23:47.819Z,186.43
2023-06-29T02:24:47.790Z,184.25
2023-06-29T02:25:47.788Z,183.13
2023-06-29T02:26:46.806Z,185.65
2023-06-29T02:27:47.796Z,183.31
2023-06-29T02:28:47.792Z,183.61
2023-06-29T02:29:47.797Z,184.21
2023-06-29T02:30:46.798Z,184.29
2023-06-29T02:31:47.850Z,181.36
2023-06-29T02:32:47.847Z,182.25
2023-06-29T02:33:47.858Z,183.46
2023-06-29T02:34:47.907Z,183.84
2023-06-29T02:35:47.943Z,180.66
2023-06-29T02:36:46.955Z,183.38
2023-06-29T02:37:46.983Z,183.31
2023-06-29T02:38:47.952Z,182.59
2023-06-29T02:39:47.014Z,180.58
2023-06-29T02:40:47.962Z,186.80
2023-06-29T02:41:46.984Z,182.59
2023-06-29T02:42:48.006Z,182.31
2023-06-29T02:43:48.071Z,184.08
2023-06-29T02:44:47.093Z,182.80
2023-06-29T02:45:47.138Z,181.55
2023-06-29T02:46:47.219Z,183.41
2023-06-29T02:47:48.233Z,181.09
2023-06-29T02:48:47.286Z,184.05
2023-06-29T02:49:47.281Z,184.10
2023-06-29T02:50:47.279Z,184.10
2023-06-29T02:51:48.324Z,182.11
2023-06-29T02:52:47.334Z,183.62
2023-06-29T02:53:47.347Z,180.80
2023-06-29T02:54:48.327Z,181.63
2023-06-29T02:55:47.332Z,182.73
2023-06-29T02:56:47.347Z,180.71
2023-06-29T02:57:48.386Z,179.61
2023-06-29T02:58:48.399Z,182.08
2023-06-29T02:59:48.411Z,181.36
2023-06-29T03:00:47.452Z,179.43
2023-06-29T03:01:48.427Z,179.13
2023-06-29T03:02:47.533Z,180.52
2023-06-29T03:03:47.462Z,181.67
2023-06-29T03:04:48.480Z,180.62
2023-06-29T03:05:48.496Z,181.04
2023-06-29T03:06:48.489Z,177.57
2023-06-29T03:07:48.490Z,180.57
2023-06-29T03:08:48.490Z,181.37
2023-06-29T03:09:47.488Z,180.02
2023-06-29T03:10:47.567Z,180.94
2023-06-29T03:11:48.520Z,181.48
2023-06-29T03:12:47.502Z,183.11
2023-06-29T03:13:47.511Z,183.71
2023-06-29T03:14:48.514Z,180.91
2023-06-29T03:15:48.522Z,179.86
2023-06-29T03:16:48.563Z,179.00
2023-06-29T03:17:48.580Z,182.33
2023-06-29T03:18:48.534Z,183.08
2023-06-29T03:19:48.548Z,179.39
2023-06-29T03:20:47.582Z,181.60
2023-06-29T03:21:47.557Z,177.34
2023-06-29T03:22:47.564Z,178.61
2023-06-29T03:23:47.600Z,180.60
2023-06-29T03:24:47.580Z,178.42
2023-06-29T03:25:48.597Z,183.01
2023-06-29T03:26:48.605Z,181.27
2023-06-29T03:27:47.631Z,182.53
2023-06-29T03:28:47.612Z,181.54
2023-06-29T03:29:48.627Z,180.66
2023-06-29T03:30:48.653Z,180.39
2023-06-29T03:31:48.645Z,181.85
2023-06-29T03:32:48.694Z,176.59
2023-06-29T03:33:48.661Z,181.96
2023-06-29T03:34:48.666Z,182.33
2023-06-29T03:35:47.690Z,180.11
2023-06-29T03:36:47.712Z,179.55
2023-06-29T03:37:47.706Z,178.11
2023-06-29T03:38:47.725Z,180.41
2023-06-29T03:39:48.744Z,180.68
2023-06-29T03:40:48.795Z,180.20
2023-06-29T03:41:47.816Z,177.54
2023-06-29T03:42:48.810Z,178.32
2023-06-29T03:43:48.955Z,177.48
2023-06-29T03:44:48.857Z,179.73
2023-06-29T03:45:47.867Z,175.89
2023-06-29T03:46:48.863Z,179.69
2023-06-29T03:47:48.039Z,179.19
2023-06-29T03:48:47.993Z,178.76
2023-06-29T03:49:47.908Z,179.66
2023-06-29T03:50:47.900Z,177.70
2023-06-29T03:51:47.910Z,179.35
2023-06-29T03:52:47.955Z,176.13
2023-06-29T03:53:48.961Z,178.08
2023-06-29T03:54:49.045Z,179.59
2023-06-29T03:55:49.007Z,179.21
2023-06-29T03:56:49.025Z,179.15
2023-06-29T03:57:49.048Z,177.08
2023-06-29T03:58:49.073Z,177.42
2023-06-29T03:59:49.101Z,176.76
2023-06-29T04:00:48.108Z,174.75
2023-06-29T04:01:49.239Z,177.02
2023-06-29T04:02:48.152Z,180.90
2023-06-29T04:03:48.178Z,178.74
2023-06-29T04:04:49.177Z,176.61
2023-06-29T04:05:49.185Z,176.96
2023-06-29T04:06:48.184Z,177.40
2023-06-29T04:07:48.180Z,177.71
2023-06-29T04:08:48.216Z,175.66
2023-06-29T04:09:48.236Z,178.11
2023-06-29T04:10:49.219Z,178.65
2023-06-29T04:11:48.241Z,176.77
2023-06-29T04:12:49.222Z,175.34
2023-06-29T04:13:49.209Z,176.75
2023-06-29T04:14:48.254Z,177.58
2023-06-29T04:15:48.270Z,177.63
2023-06-29T04:16:48.269Z,177.18
2023-06-29T04:17:48.301Z,177.69
2023-06-29T04:18:49.251Z,175.18
2023-06-29T04:19:48.241Z,177.54
2023-06-29T04:20:48.247Z,176.73
2023-06-29T04:21:48.338Z,177.40
2023-06-29T04:22:49.282Z,178.27
2023-06-29T04:23:49.280Z,178.31
2023-06-29T04:24:48.295Z,178.63
2023-06-29T04:25:48.285Z,177.51
2023-06-29T04:26:48.288Z,178.90
2023-06-29T04:27:48.330Z,176.88
2023-06-29T04:28:49.303Z,177.25
2023-06-29T04:29:49.304Z,172.84
2023-06-29T04:30:48.365Z,173.83
2023-06-29T04:31:49.345Z,176.71
2023-06-29T04:32:49.421Z,176.89
2023-06-29T04:33:49.404Z,179.21
2023-06-29T04:34:49.428Z,176.98
2023-06-29T04:35:48.512Z,175.19
2023-06-29T04:36:49.429Z,174.49
2023-06-29T04:37:48.447Z,177.88
2023-06-29T04:38:49.416Z,177.06
2023-06-29T04:39:49.418Z,176.00
2023-06-29T04:40:49.450Z,175.94
2023-06-29T04:41:48.420Z,174.64
2023-06-29T04:42:49.496Z,173.01
2023-06-29T04:43:48.449Z,172.61
2023-06-29T04:44:49.472Z,174.58
2023-06-29T04:45:48.461Z,175.54
2023-06-29T04:46:49.488Z,176.06
2023-06-29T04:47:49.498Z,175.94
2023-06-29T04:48:49.476Z,173.39
2023-06-29T04:49:49.538Z,175.56
2023-06-29T04:50:48.533Z,175.60
2023-06-29T04:51:49.496Z,173.21
2023-06-29T04:52:48.531Z,172.81
2023-06-29T04:53:48.529Z,170.10
2023-06-29T04:54:48.535Z,172.83
2023-06-29T04:55:49.564Z,173.17
2023-06-29T04:56:49.588Z,172.78
2023-06-29T04:57:49.588Z,171.41
2023-06-29T04:58:49.625Z,171.60
2023-06-29T04:59:48.603Z,172.93
2023-06-29T05:00:48.618Z,173.90
2023-06-29T05:01:49.737Z,173.37
2023-06-29T05:02:48.761Z,173.23
2023-06-29T05:03:48.792Z,172.89
2023-06-29T05:04:49.685Z,168.72
2023-06-29T05:05:49.700Z,172.40
2023-06-29T05:06:48.707Z,175.86
2023-06-29T05:07:48.716Z,174.01
2023-06-29T05:08:49.740Z,171.23
2023-06-29T05:09:48.753Z,173.59
2023-06-29T05:10:49.776Z,172.67
2023-06-29T05:11:49.783Z,172.43
2023-06-29T05:12:49.838Z,170.82
2023-06-29T05:13:48.867Z,173.22
2023-06-29T05:14:49.866Z,173.37
2023-06-29T05:15:48.963Z,173.32
2023-06-29T05:16:49.966Z,173.42
2023-06-29T05:17:48.956Z,173.51
2023-06-29T05:18:48.917Z,171.86
2023-06-29T05:19:49.931Z,171.55
2023-06-29T05:20:48.948Z,171.74
2023-06-29T05:21:48.967Z,172.64
2023-06-29T05:22:48.973Z,171.79
2023-06-29T05:23:49.986Z,175.81
2023-06-29T05:24:50.013Z,175.00
2023-06-29T05:25:49.007Z,170.63
2023-06-29T05:26:50.011Z,171.57
2023-06-29T05:27:50.087Z,171.68
2023-06-29T05:29:50.051Z,173.64
2023-06-29T05:30:49.023Z,174.52
2023-06-29T05:31:50.074Z,173.80
2023-06-29T05:32:50.087Z,173.82
2023-06-29T05:33:49.012Z,174.29
2023-06-29T05:34:49.016Z,173.46
2023-06-29T05:35:49.994Z,171.66
2023-06-29T05:36:49.986Z,168.62
2023-06-29T05:37:48.992Z,172.02
2023-06-29T05:38:48.982Z,169.25
2023-06-29T05:39:49.970Z,173.44
2023-06-29T05:40:48.977Z,170.49
2023-06-29T05:41:48.946Z,173.83
2023-06-29T05:42:48.946Z,171.33
2023-06-29T05:43:49.955Z,173.89
2023-06-29T05:44:49.979Z,169.81
2023-06-29T05:45:48.998Z,172.76
2023-06-29T05:46:48.927Z,174.00
2023-06-29T05:47:49.942Z,169.70
2023-06-29T05:48:49.913Z,170.70
2023-06-29T05:49:49.894Z,171.58
2023-06-29T05:50:49.897Z,170.15
2023-06-29T05:51:49.895Z,172.04
2023-06-29T05:52:51.414Z,173.64
2023-06-29T05:53:49.882Z,175.22
2023-06-29T05:54:49.856Z,176.80
2023-06-29T05:55:49.863Z,172.79
2023-06-29T05:56:49.854Z,172.97
2023-06-29T05:57:48.879Z,174.09
2023-06-29T05:58:50.112Z,171.51
2023-06-29T05:59:48.849Z,173.69
2023-06-29T06:00:48.871Z,169.87
2023-06-29T06:01:49.910Z,174.89
2023-06-29T06:02:48.960Z,169.81
2023-06-29T06:03:49.850Z,169.18
2023-06-29T06:04:49.816Z,169.13
2023-06-29T06:05:50.604Z,170.19
2023-06-29T06:06:49.847Z,175.07
2023-06-29T06:07:49.808Z,177.08
2023-06-29T06:08:49.788Z,182.00
2023-06-29T06:09:49.789Z,183.34
2023-06-29T06:10:49.799Z,182.87
2023-06-29T06:11:48.760Z,181.75
2023-06-29T06:12:49.747Z,181.32
2023-06-29T06:13:49.783Z,183.22
2023-06-29T06:14:49.739Z,182.43
2023-06-29T06:15:50.303Z,181.57
2023-06-29T06:16:50.568Z,184.00
2023-06-29T06:17:49.807Z,183.61
2023-06-29T06:18:49.710Z,185.96
2023-06-29T06:19:49.739Z,189.67
2023-06-29T06:20:49.714Z,192.09
2023-06-29T06:21:48.694Z,192.33
2023-06-29T06:22:49.689Z,190.47
2023-06-29T06:23:49.692Z,193.55
2023-06-29T06:24:49.709Z,195.84
2023-06-29T06:25:49.682Z,197.19
2023-06-29T06:26:48.665Z,199.76
2023-06-29T06:27:49.732Z,199.23
2023-06-29T06:28:49.677Z,201.72
2023-06-29T06:29:48.774Z,200.42
2023-06-29T06:30:48.926Z,200.44
2023-06-29T06:31:48.909Z,200.76
2023-06-29T06:32:49.970Z,199.88
2023-06-29T06:33:49.980Z,199.54
2023-06-29T06:34:50.003Z,199.17
2023-06-29T06:35:49.069Z,198.77
2023-06-29T06:36:50.163Z,202.48
2023-06-29T06:37:50.134Z,203.71
2023-06-29T06:38:50.615Z,200.71
2023-06-29T06:39:50.224Z,204.29
2023-06-29T06:40:49.259Z,205.26
2023-06-29T06:41:50.301Z,206.69
2023-06-29T06:42:49.347Z,206.91
2023-06-29T06:43:50.425Z,207.58
2023-06-29T06:44:50.447Z,205.72
2023-06-29T06:45:50.519Z,205.72
2023-06-29T06:46:50.610Z,205.24
2023-06-29T06:47:50.622Z,205.94
2023-06-29T06:48:49.655Z,204.09
2023-06-29T06:49:50.681Z,203.82
2023-06-29T06:50:49.687Z,207.86
2023-06-29T06:51:50.714Z,210.96
2023-06-29T06:52:50.711Z,209.25
2023-06-29T06:53:51.123Z,208.58
2023-06-29T06:54:50.723Z,209.10
2023-06-29T06:55:50.708Z,210.17
2023-06-29T06:56:50.736Z,207.70
2023-06-29T06:57:50.716Z,206.18
2023-06-29T06:58:50.725Z,210.32
2023-06-29T06:59:49.741Z,211.37
2023-06-29T07:00:50.809Z,208.00
2023-06-29T07:01:50.749Z,209.14
2023-06-29T07:02:50.859Z,207.52
2023-06-29T07:03:50.799Z,207.94
2023-06-29T07:04:49.895Z,206.21
2023-06-29T07:05:50.865Z,207.86
2023-06-29T07:06:49.885Z,207.56
2023-06-29T07:07:50.872Z,207.93
2023-06-29T07:08:50.953Z,207.63
2023-06-29T07:09:50.934Z,207.36
2023-06-29T07:10:50.942Z,206.98
2023-06-29T07:11:50.972Z,209.18
2023-06-29T07:12:51.008Z,207.29
2023-06-29T07:13:50.116Z,203.84
2023-06-29T07:14:50.075Z,204.99
2023-06-29T07:15:51.111Z,205.50
2023-06-29T07:16:50.197Z,209.49
2023-06-29T07:17:51.330Z,209.03
2023-06-29T07:18:50.233Z,206.89
2023-06-29T07:24:50.217Z,212.59
2023-06-29T07:25:51.227Z,212.59
2023-06-29T07:26:51.219Z,213.24
2023-06-29T07:27:51.201Z,212.44
2023-06-29T07:28:51.280Z,207.66
2023-06-29T07:29:51.200Z,210.93
2023-06-29T07:30:51.260Z,208.06
2023-06-29T07:31:51.190Z,206.93
2023-06-29T07:32:50.204Z,208.92
2023-06-29T07:33:51.173Z,205.70
2023-06-29T07:34:51.167Z,207.19
2023-06-29T07:35:51.163Z,206.33
2023-06-29T07:36:50.172Z,205.78
2023-06-29T07:37:51.265Z,205.67
2023-06-29T07:38:51.133Z,206.31
2023-06-29T07:39:50.135Z,203.53
2023-06-29T07:40:50.403Z,204.81
2023-06-29T07:41:51.195Z,205.43
2023-06-29T07:42:51.122Z,203.59
2023-06-29T07:43:50.085Z,208.39
2023-06-29T07:44:50.074Z,204.11
2023-06-29T07:45:51.083Z,202.77
2023-06-29T07:46:50.072Z,205.78
2023-06-29T07:47:51.171Z,205.40
2023-06-29T07:48:51.287Z,205.18
2023-06-29T07:49:51.043Z,205.85
2023-06-29T07:50:51.030Z,206.92
2023-06-29T07:51:51.047Z,206.34
2023-06-29T07:52:51.215Z,203.54
2023-06-29T07:53:51.157Z,205.73
2023-06-29T07:54:51.022Z,206.95
2023-06-29T07:55:50.997Z,207.84
2023-06-29T07:58:51.614Z,210.97
2023-06-29T07:59:49.978Z,211.19
2023-06-29T08:00:49.976Z,212.21
2023-06-29T08:01:51.039Z,212.24
2023-06-29T08:02:51.031Z,213.50
2023-06-29T08:04:02.190Z,211.50
2023-06-29T08:06:51.724Z,211.38
2023-06-29T08:07:49.958Z,211.35
2023-06-29T08:08:51.077Z,212.67
2023-06-29T08:09:49.921Z,213.60
2023-06-29T08:10:50.994Z,215.39
2023-06-29T08:11:49.976Z,215.73
2023-06-29T08:12:51.000Z,217.51
2023-06-29T08:13:51.038Z,216.33
2023-06-29T08:14:51.110Z,217.15
2023-06-29T08:15:50.114Z,214.16
2023-06-29T08:16:51.218Z,215.27
2023-06-29T08:17:50.296Z,214.64
2023-06-29T08:18:51.354Z,215.51
2023-06-29T08:19:50.356Z,213.75
2023-06-29T08:20:50.321Z,214.20
2023-06-29T08:21:51.370Z,212.22
2023-06-29T08:22:51.452Z,212.40
2023-06-29T08:23:51.496Z,215.34
2023-06-29T08:24:50.536Z,213.82
2023-06-29T08:25:50.561Z,214.58
2023-06-29T08:26:51.618Z,213.91
2023-06-29T08:27:51.718Z,213.62
2023-06-29T08:28:50.728Z,212.83
2023-06-29T08:29:50.788Z,214.62
2023-06-29T08:30:51.841Z,213.21
2023-06-29T08:31:51.881Z,212.01
2023-06-29T08:32:51.990Z,213.95
2023-06-29T08:33:52.077Z,213.29
2023-06-29T08:34:51.048Z,212.82
2023-06-29T08:35:51.088Z,214.10
2023-06-29T08:36:52.807Z,215.68
2023-06-29T08:37:52.196Z,213.95
2023-06-29T08:38:51.217Z,213.58
2023-06-29T08:39:51.285Z,213.52
2023-06-29T08:40:52.356Z,213.19
2023-06-29T08:41:52.374Z,214.40
2023-06-29T08:42:51.423Z,212.39
2023-06-29T08:43:52.598Z,211.59
2023-06-29T08:44:51.660Z,214.50
2023-06-29T08:45:52.638Z,212.41
2023-06-29T08:46:51.638Z,214.28
2023-06-29T08:47:52.995Z,215.18
2023-06-29T08:48:52.716Z,215.83
2023-06-29T08:49:52.787Z,210.66
2023-06-29T08:50:52.812Z,218.01
2023-06-29T08:51:52.881Z,214.18
2023-06-29T08:52:51.978Z,217.37
2023-06-29T08:53:52.084Z,215.12
2023-06-29T08:54:53.043Z,218.58
2023-06-29T08:55:52.103Z,214.62
2023-06-29T08:56:52.179Z,215.30
2023-06-29T08:57:53.178Z,215.06
2023-06-29T08:58:53.235Z,218.09
2023-06-29T08:59:52.301Z,215.12
2023-06-29T09:00:52.338Z,214.24
2023-06-29T09:01:52.543Z,214.92
2023-06-29T09:02:52.516Z,213.72
2023-06-29T09:03:53.704Z,213.18
2023-06-29T09:04:53.604Z,214.54
2023-06-29T09:05:53.650Z,211.50
2023-06-29T09:06:53.727Z,212.82
2023-06-29T09:07:53.862Z,213.49
2023-06-29T09:08:52.869Z,214.74
2023-06-29T09:09:53.874Z,214.42
2023-06-29T09:10:53.955Z,216.39
2023-06-29T09:11:54.025Z,213.21
2023-06-29T09:12:54.076Z,214.11
2023-06-29T09:13:53.169Z,214.41
2023-06-29T09:14:54.216Z,213.55
2023-06-29T09:15:54.315Z,213.48
2023-06-29T09:16:53.346Z,212.89
2023-06-29T09:17:53.472Z,216.71
2023-06-29T09:18:54.418Z,214.40
2023-06-29T09:19:54.481Z,215.80
2023-06-29T09:20:54.559Z,214.71
2023-06-29T09:21:53.600Z,216.84
2023-06-29T09:22:54.682Z,216.04
2023-06-29T09:23:54.696Z,213.84
2023-06-29T09:25:04.632Z,215.63
2023-06-29T09:25:54.787Z,215.89
2023-06-29T09:26:54.760Z,216.76
2023-06-29T09:27:54.768Z,217.23
2023-06-29T09:28:54.725Z,218.62
2023-06-29T09:29:54.780Z,218.61
2023-06-29T09:30:53.773Z,216.33
2023-06-29T09:31:54.794Z,217.93
2023-06-29T09:32:54.816Z,217.34
2023-06-29T09:33:54.740Z,215.39
2023-06-29T09:34:54.702Z,214.82
2023-06-29T09:35:54.902Z,217.92
2023-06-29T09:36:53.684Z,217.00
2023-06-29T09:37:53.686Z,216.96
2023-06-29T09:38:54.669Z,211.13
2023-06-29T09:39:54.778Z,217.20
2023-06-29T09:40:54.654Z,217.17
2023-06-29T09:41:54.694Z,217.41
2023-06-29T09:42:54.659Z,215.35
2023-06-29T09:43:54.669Z,215.62
2023-06-29T09:44:54.624Z,218.87
2023-06-29T09:45:54.642Z,215.25
2023-06-29T09:49:53.720Z,217.56
2023-06-29T09:50:54.947Z,218.13
2023-06-29T09:51:54.581Z,219.75
2023-06-29T09:52:55.573Z,220.19
2023-06-29T09:53:54.564Z,219.83
2023-06-29T09:54:54.628Z,221.56
2023-06-29T09:55:54.574Z,220.57
2023-06-29T09:56:53.823Z,222.29
2023-06-29T09:57:53.601Z,225.65
2023-06-29T09:58:54.581Z,240.15
2023-06-29T09:59:54.607Z,253.96
2023-06-29T10:00:53.727Z,259.85
2023-06-29T10:01:54.714Z,280.55
2023-06-29T10:02:53.912Z,282.38
2023-06-29T10:03:54.761Z,262.54
2023-06-29T10:04:55.012Z,248.81
2023-06-29T10:05:54.847Z,243.65
2023-06-29T10:06:53.901Z,239.81
2023-06-29T10:07:54.848Z,234.35
2023-06-29T10:08:54.864Z,231.22
2023-06-29T10:09:53.841Z,232.77
2023-06-29T10:10:54.888Z,232.37
2023-06-29T10:11:53.961Z,230.12
2023-06-29T10:12:53.965Z,230.75
2023-06-29T10:13:53.986Z,232.69
2023-06-29T10:14:54.030Z,238.08
2023-06-29T10:15:55.114Z,234.92
2023-06-29T10:16:54.171Z,224.66
2023-06-29T10:17:54.216Z,221.21
2023-06-29T10:18:55.232Z,224.72
2023-06-29T10:19:55.270Z,225.23
2023-06-29T10:20:54.307Z,221.07
2023-06-29T10:21:54.293Z,217.70
2023-06-29T10:22:54.333Z,211.80
2023-06-29T10:23:55.332Z,207.31
2023-06-29T10:24:55.379Z,217.35
2023-06-29T10:25:55.384Z,227.55
2023-06-29T10:26:54.533Z,264.38
2023-06-29T10:27:54.484Z,347.87
2023-06-29T10:28:55.483Z,383.15
2023-06-29T10:29:55.475Z,358.71
2023-06-29T10:30:55.573Z,320.92
2023-06-29T10:31:54.606Z,278.09
2023-06-29T10:32:55.691Z,257.82
2023-06-29T10:33:55.701Z,238.59
2023-06-29T10:34:55.761Z,235.32
2023-06-29T10:35:55.800Z,241.61
2023-06-29T10:36:54.893Z,236.11
2023-06-29T10:37:55.923Z,229.98
2023-06-29T10:38:56.004Z,224.16
2023-06-29T10:39:56.128Z,220.64
2023-06-29T10:40:55.092Z,217.02
2023-06-29T10:41:56.151Z,181.23
2023-06-29T10:42:56.217Z,168.62
2023-06-29T10:43:56.150Z,164.95
2023-06-29T10:44:55.212Z,165.50
2023-06-29T10:45:55.138Z,169.18
2023-06-29T10:46:55.414Z,171.94
2023-06-29T10:47:56.282Z,174.83
2023-06-29T10:48:55.168Z,175.80
2023-06-29T10:49:55.197Z,177.35
2023-06-29T10:50:55.218Z,178.22
2023-06-29T10:51:56.277Z,178.54
2023-06-29T10:52:55.284Z,178.95
2023-06-29T10:53:56.306Z,178.54
2023-06-29T10:54:55.353Z,179.49
2023-06-29T10:55:56.360Z,179.02
2023-06-29T10:56:55.411Z,179.01
2023-06-29T10:57:56.450Z,179.10
2023-06-29T10:58:56.522Z,180.39
2023-06-29T10:59:56.505Z,178.47
2023-06-29T11:00:56.553Z,179.80
2023-06-29T11:01:56.674Z,181.14
2023-06-29T11:02:56.736Z,179.66
2023-06-29T11:03:56.800Z,179.86
2023-06-29T11:04:56.824Z,179.90
2023-06-29T11:05:56.769Z,179.48
2023-06-29T11:06:56.891Z,179.42
2023-06-29T11:07:55.863Z,179.74
2023-06-29T11:08:55.943Z,180.18
2023-06-29T11:09:55.997Z,178.69
2023-06-29T11:10:57.061Z,179.43
2023-06-29T11:11:57.123Z,178.63
2023-06-29T11:12:56.193Z,178.48
2023-06-29T11:13:57.188Z,178.09
2023-06-29T11:15:14.144Z,177.65
2023-06-29T11:15:57.264Z,177.74
2023-06-29T11:16:57.239Z,177.79
2023-06-29T11:17:57.256Z,177.92
2023-06-29T11:18:57.203Z,177.64
2023-06-29T11:19:57.239Z,177.31
2023-06-29T11:20:57.215Z,177.48
2023-06-29T11:21:57.187Z,175.90
2023-06-29T11:22:57.286Z,175.86
2023-06-29T11:23:57.243Z,176.37
2023-06-29T11:24:56.175Z,176.97
2023-06-29T11:25:56.176Z,176.84
2023-06-29T11:26:56.148Z,175.64
2023-06-29T11:27:57.177Z,176.46
2023-06-29T11:28:57.141Z,175.96
2023-06-29T11:29:57.160Z,175.94
2023-06-29T11:30:56.586Z,175.04
2023-06-29T11:31:57.151Z,175.68
2023-06-29T11:32:57.185Z,175.94
2023-06-29T11:33:56.089Z,175.77
2023-06-29T11:34:57.104Z,175.39
2023-06-29T11:35:57.202Z,174.87
2023-06-29T11:37:09.600Z,175.03
2023-06-29T11:37:57.209Z,175.10
2023-06-29T11:38:57.065Z,175.29
2023-06-29T11:39:57.069Z,174.16
2023-06-29T11:40:56.072Z,174.13
2023-06-29T11:41:56.052Z,172.64
2023-06-29T11:42:57.099Z,173.17
2023-06-29T11:43:56.035Z,173.48
2023-06-29T11:44:57.044Z,173.57
2023-06-29T11:45:56.084Z,173.67
2023-06-29T11:47:12.323Z,172.84
2023-06-29T11:47:57.062Z,172.96
2023-06-29T11:48:56.994Z,173.37
2023-06-29T11:49:57.001Z,173.57
2023-06-29T11:50:56.068Z,173.06
2023-06-29T11:51:56.011Z,172.10
2023-06-29T11:52:55.974Z,171.44
2023-06-29T11:53:56.975Z,172.34
2023-06-29T11:54:56.972Z,172.07
2023-06-29T11:55:55.958Z,170.33
2023-06-29T11:56:55.940Z,170.02
2023-06-29T11:57:56.956Z,171.13
2023-06-29T11:58:56.938Z,170.03
2023-06-29T11:59:55.938Z,169.56
2023-06-29T12:00:55.948Z,169.16
2023-06-29T12:01:55.924Z,169.67
2023-06-29T12:02:56.969Z,169.17
2023-06-29T12:03:57.058Z,168.43
2023-06-29T12:04:56.113Z,169.40
2023-06-29T12:05:55.907Z,168.00
2023-06-29T12:06:56.984Z,167.73
2023-06-29T12:07:56.033Z,168.28
2023-06-29T12:08:55.899Z,168.39
2023-06-29T12:09:56.869Z,167.84
2023-06-29T12:10:55.848Z,168.45
2023-06-29T12:11:56.872Z,166.81
2023-06-29T12:12:55.826Z,166.21
2023-06-29T12:13:56.832Z,167.34
2023-06-29T12:14:55.826Z,166.58
2023-06-29T12:18:00.473Z,165.76
2023-06-29T12:18:56.941Z,165.84
2023-06-29T12:20:09.944Z,166.15
2023-06-29T12:20:57.006Z,165.82
2023-06-29T12:21:56.177Z,165.80
2023-06-29T12:22:56.779Z,166.16
2023-06-29T12:23:56.781Z,166.19
2023-06-29T12:24:56.749Z,165.47
2023-06-29T12:25:55.738Z,165.58
2023-06-29T12:26:55.829Z,164.59
2023-06-29T12:27:56.740Z,164.65
2023-06-29T12:28:56.736Z,163.95
2023-06-29T12:29:56.707Z,161.88
2023-06-29T12:30:56.757Z,162.93
2023-06-29T12:31:55.724Z,162.41
2023-06-29T12:32:55.800Z,162.70
2023-06-29T12:33:55.792Z,162.01
2023-06-29T12:34:55.681Z,162.14
2023-06-29T12:35:55.696Z,160.79
2023-06-29T12:36:56.658Z,160.91
2023-06-29T12:37:55.652Z,160.31
2023-06-29T12:38:55.727Z,160.90
2023-06-29T12:39:55.682Z,160.61
2023-06-29T12:40:56.650Z,158.94
2023-06-29T12:41:56.664Z,160.68
2023-06-29T12:42:55.628Z,160.11
2023-06-29T12:43:56.628Z,159.43